createdAt,value
2018-10-16T00:00:32.885Z,11.00
2018-10-16T00:03:03.678Z,10.90
2018-10-16T00:05:33.664Z,10.90
2018-10-16T00:08:03.770Z,10.80
2018-10-16T00:10:38.778Z,10.80
2018-10-16T00:13:10.813Z,10.70
2018-10-16T00:15:40.746Z,10.70
2018-10-16T00:18:11.654Z,10.80
2018-10-16T00:20:41.928Z,10.80
2018-10-16T00:23:11.923Z,10.70
2018-10-16T00:25:41.837Z,10.60
2018-10-16T00:28:11.912Z,10.60
2018-10-16T00:30:41.859Z,10.60
2018-10-16T00:33:11.968Z,10.50
2018-10-16T00:35:41.964Z,10.50
2018-10-16T00:38:11.947Z,10.50
2018-10-16T00:40:41.916Z,10.40
2018-10-16T00:43:11.922Z,10.40
2018-10-16T00:45:41.884Z,10.30
2018-10-16T00:48:11.812Z,10.30
2018-10-16T00:50:41.835Z,10.30
2018-10-16T00:53:11.782Z,10.30
2018-10-16T00:55:41.707Z,10.30
2018-10-16T00:58:11.724Z,10.30
2018-10-16T01:00:41.780Z,10.30
2018-10-16T01:03:11.750Z,10.20
2018-10-16T01:05:41.778Z,10.20
2018-10-16T01:08:11.763Z,10.20
2018-10-16T01:10:41.778Z,10.10
2018-10-16T01:13:11.803Z,10.10
2018-10-16T01:15:41.759Z,10.10
2018-10-16T01:18:11.793Z,10.10
2018-10-16T01:20:41.863Z,10.10
2018-10-16T01:23:11.936Z,10.10
2018-10-16T01:25:41.960Z,10.10
2018-10-16T01:28:11.988Z,10.00
2018-10-16T01:30:42.017Z,10.00
2018-10-16T01:33:11.982Z,10.00
2018-10-16T01:35:41.873Z,9.90
2018-10-16T01:38:11.832Z,9.90
2018-10-16T01:40:41.795Z,9.90
2018-10-16T01:43:11.741Z,9.90
2018-10-16T01:45:41.753Z,9.90
2018-10-16T01:48:11.698Z,9.90
2018-10-16T01:50:41.609Z,9.90
2018-10-16T01:53:11.472Z,9.90
2018-10-16T01:55:41.442Z,9.90
2018-10-16T01:58:11.364Z,9.80
2018-10-16T02:00:41.316Z,9.80
2018-10-16T02:03:11.276Z,9.80
2018-10-16T02:05:41.244Z,9.70
2018-10-16T02:08:11.170Z,9.80
2018-10-16T02:10:41.061Z,9.90
2018-10-16T02:13:10.998Z,9.80
2018-10-16T02:15:40.905Z,9.80
2018-10-16T02:18:10.928Z,9.70
2018-10-16T02:20:40.959Z,9.70
2018-10-16T02:23:10.991Z,9.70
2018-10-16T02:25:40.948Z,9.60
2018-10-16T02:28:10.910Z,9.60
2018-10-16T02:30:40.786Z,9.60
2018-10-16T02:33:10.736Z,9.50
2018-10-16T02:35:40.669Z,9.50
2018-10-16T02:38:10.659Z,9.50
2018-10-16T02:40:40.549Z,9.50
2018-10-16T02:43:10.575Z,9.40
2018-10-16T02:45:40.514Z,9.40
2018-10-16T02:48:10.466Z,9.40
2018-10-16T02:50:40.430Z,9.40
2018-10-16T02:53:10.381Z,9.30
2018-10-16T02:55:40.308Z,9.20
2018-10-16T02:58:10.344Z,9.20
2018-10-16T03:00:40.322Z,9.20
2018-10-16T03:03:10.332Z,9.10
2018-10-16T03:05:40.425Z,9.10
2018-10-16T03:08:10.364Z,9.10
2018-10-16T03:10:40.341Z,9.10
2018-10-16T03:13:10.331Z,9.10
2018-10-16T03:15:40.262Z,9.00
2018-10-16T03:18:10.280Z,9.10
2018-10-16T03:20:41.251Z,9.10
2018-10-16T03:23:11.083Z,9.10
2018-10-16T03:25:40.999Z,9.00
2018-10-16T03:28:11.069Z,9.10
2018-10-16T03:30:41.030Z,9.20
2018-10-16T03:33:10.951Z,9.10
2018-10-16T03:35:40.930Z,9.10
2018-10-16T03:38:10.843Z,9.00
2018-10-16T03:40:40.818Z,9.00
2018-10-16T03:43:10.773Z,9.00
2018-10-16T03:45:40.756Z,9.10
2018-10-16T03:48:10.745Z,9.10
2018-10-16T03:50:40.737Z,9.10
2018-10-16T03:53:10.736Z,9.10
2018-10-16T03:55:40.760Z,9.10
2018-10-16T03:58:10.816Z,9.10
2018-10-16T04:00:40.875Z,9.10
2018-10-16T04:03:10.916Z,9.20
2018-10-16T04:05:40.909Z,9.20
2018-10-16T04:08:10.928Z,9.20
2018-10-16T04:10:40.909Z,9.10
2018-10-16T04:13:11.039Z,9.00
2018-10-16T04:15:41.006Z,9.10
2018-10-16T04:18:10.932Z,9.00
2018-10-16T04:20:40.972Z,9.10
2018-10-16T04:23:10.838Z,9.10
2018-10-16T04:25:40.896Z,9.10
2018-10-16T04:28:10.816Z,9.20
2018-10-16T04:30:40.833Z,9.20
2018-10-16T04:33:10.960Z,9.20
2018-10-16T04:35:40.935Z,9.20
2018-10-16T04:38:10.922Z,9.30
2018-10-16T04:40:40.907Z,9.30
2018-10-16T04:43:10.833Z,9.40
2018-10-16T04:45:40.848Z,9.40
2018-10-16T04:48:10.868Z,9.40
2018-10-16T04:50:40.883Z,9.40
2018-10-16T04:53:10.818Z,9.40
2018-10-16T04:55:40.716Z,9.50
2018-10-16T04:58:10.644Z,9.40
2018-10-16T05:00:40.556Z,9.30
2018-10-16T05:03:10.548Z,9.30
2018-10-16T05:05:40.492Z,9.20
2018-10-16T05:08:10.435Z,9.30
2018-10-16T05:10:40.384Z,9.30
2018-10-16T05:13:10.394Z,9.30
2018-10-16T05:15:40.520Z,9.40
2018-10-16T05:18:10.816Z,9.40
2018-10-16T05:20:40.825Z,9.50
2018-10-16T05:23:10.782Z,9.50
2018-10-16T05:25:40.704Z,9.50
2018-10-16T05:28:10.799Z,9.60
2018-10-16T05:30:41.653Z,9.60
2018-10-16T05:33:11.741Z,9.60
2018-10-16T05:35:41.648Z,9.60
2018-10-16T05:38:12.433Z,9.50
2018-10-16T05:40:42.421Z,9.50
2018-10-16T05:43:12.495Z,9.60
2018-10-16T05:45:44.467Z,9.50
2018-10-16T05:48:14.478Z,9.50
2018-10-16T05:50:44.845Z,9.40
2018-10-16T05:53:15.015Z,9.40
2018-10-16T05:55:44.993Z,9.30
2018-10-16T05:58:14.951Z,9.20
2018-10-16T06:00:46.583Z,9.20
2018-10-16T06:03:16.570Z,9.30
2018-10-16T06:05:46.680Z,9.30
2018-10-16T06:08:16.709Z,9.30
2018-10-16T06:10:47.898Z,9.30
2018-10-16T06:13:17.907Z,9.40
2018-10-16T06:15:47.952Z,9.40
2018-10-16T06:18:17.860Z,9.40
2018-10-16T06:20:47.807Z,9.40
2018-10-16T06:23:17.825Z,9.50
2018-10-16T06:25:47.852Z,9.60
2018-10-16T06:28:19.941Z,9.70
2018-10-16T06:30:50.123Z,9.70
2018-10-16T06:33:23.783Z,9.80
2018-10-16T06:35:53.723Z,9.80
2018-10-16T06:38:23.695Z,9.90
2018-10-16T06:40:53.841Z,10.00
2018-10-16T06:43:23.785Z,10.00
2018-10-16T06:45:54.038Z,10.10
2018-10-16T06:48:24.307Z,10.20
2018-10-16T06:50:54.023Z,10.20
2018-10-16T06:53:24.144Z,10.30
2018-10-16T06:55:54.072Z,10.40
2018-10-16T06:58:24.049Z,10.60
2018-10-16T07:00:54.113Z,10.60
2018-10-16T07:03:24.192Z,10.70
2018-10-16T07:05:54.277Z,10.70
2018-10-16T07:08:24.302Z,10.80
2018-10-16T07:10:54.314Z,10.90
2018-10-16T07:13:24.340Z,11.00
2018-10-16T07:15:54.424Z,11.10
2018-10-16T07:18:24.477Z,11.10
2018-10-16T07:20:54.577Z,11.30
2018-10-16T07:23:24.658Z,11.20
2018-10-16T07:25:54.649Z,11.30
2018-10-16T07:28:24.739Z,11.40
2018-10-16T07:30:54.757Z,11.50
2018-10-16T07:33:24.702Z,11.60
2018-10-16T07:35:54.736Z,11.70
2018-10-16T07:38:24.865Z,11.80
2018-10-16T07:40:54.788Z,12.00
2018-10-16T07:43:24.764Z,12.00
2018-10-16T07:45:54.729Z,12.20
2018-10-16T07:48:24.762Z,12.30
2018-10-16T07:50:55.112Z,12.30
2018-10-16T07:53:25.206Z,12.50
2018-10-16T07:55:55.456Z,12.70
2018-10-16T07:58:25.438Z,12.90
2018-10-16T08:00:55.481Z,12.90
2018-10-16T08:03:25.496Z,13.10
2018-10-16T08:05:55.424Z,13.30
2018-10-16T08:08:25.316Z,13.40
2018-10-16T08:10:55.385Z,13.60
2018-10-16T08:13:25.391Z,13.70
2018-10-16T08:15:55.431Z,13.80
2018-10-16T08:18:25.408Z,13.90
2018-10-16T08:20:55.410Z,14.10
2018-10-16T08:23:25.416Z,14.30
2018-10-16T08:25:55.573Z,14.40
2018-10-16T08:28:25.513Z,14.40
2018-10-16T08:30:55.508Z,14.30
2018-10-16T08:33:25.549Z,14.40
2018-10-16T08:35:55.597Z,14.20
2018-10-16T08:38:45.563Z,14.10
2018-10-16T08:41:15.681Z,14.20
2018-10-16T08:43:56.589Z,14.40
2018-10-16T08:46:37.464Z,14.70
2018-10-16T08:49:18.691Z,14.70
2018-10-16T08:51:50.720Z,14.90
2018-10-16T08:54:20.884Z,15.10
2018-10-16T08:56:50.926Z,15.20
2018-10-16T08:59:21.073Z,15.60
2018-10-16T09:01:51.110Z,16.50
2018-10-16T09:04:21.041Z,17.30
2018-10-16T09:06:51.124Z,17.90
2018-10-16T09:09:20.974Z,18.30
2018-10-16T09:11:50.953Z,18.60
2018-10-16T09:14:20.880Z,18.70
2018-10-16T09:16:50.794Z,18.70
2018-10-16T09:19:20.831Z,18.70
2018-10-16T09:21:50.833Z,18.80
2018-10-16T09:24:21.049Z,18.90
2018-10-16T09:26:51.015Z,18.90
2018-10-16T09:29:21.054Z,18.80
2018-10-16T09:31:51.121Z,18.60
2018-10-16T09:34:21.155Z,18.60
2018-10-16T09:36:51.247Z,18.50
2018-10-16T09:39:21.324Z,18.50
2018-10-16T09:41:51.383Z,18.30
2018-10-16T09:44:21.364Z,18.30
2018-10-16T09:46:51.398Z,18.20
2018-10-16T09:49:21.357Z,18.30
2018-10-16T09:51:51.322Z,18.30
2018-10-16T09:54:21.360Z,18.40
2018-10-16T09:56:51.325Z,18.30
2018-10-16T09:59:21.341Z,18.40
2018-10-16T10:01:54.767Z,18.60
2018-10-16T10:04:24.856Z,18.50
2018-10-16T10:06:54.950Z,18.50
2018-10-16T10:09:24.878Z,18.50
2018-10-16T10:11:54.859Z,18.50
2018-10-16T10:14:24.796Z,18.40
2018-10-16T10:16:54.778Z,18.40
2018-10-16T10:19:24.744Z,18.50
2018-10-16T10:21:55.224Z,18.70
2018-10-16T10:24:25.381Z,18.80
2018-10-16T10:26:55.399Z,18.90
2018-10-16T10:29:25.380Z,18.80
2018-10-16T10:31:55.370Z,18.80
2018-10-16T10:34:25.230Z,18.70
2018-10-16T10:36:55.209Z,18.70
2018-10-16T10:39:25.122Z,18.80
2018-10-16T10:41:55.152Z,18.90
2018-10-16T10:44:25.248Z,19.10
2018-10-16T10:46:55.249Z,18.70
2018-10-16T10:49:25.233Z,18.80
2018-10-16T10:51:55.191Z,18.90
2018-10-16T10:54:25.146Z,18.90
2018-10-16T10:56:55.262Z,18.90
2018-10-16T10:59:25.124Z,19.00
2018-10-16T11:01:55.117Z,19.00
2018-10-16T11:04:25.116Z,19.20
2018-10-16T11:06:55.116Z,19.20
2018-10-16T11:09:25.079Z,19.20
2018-10-16T11:11:56.041Z,19.20
2018-10-16T11:14:27.192Z,19.20
2018-10-16T11:16:57.177Z,19.30
2018-10-16T11:19:27.285Z,19.40
2018-10-16T11:21:57.138Z,19.40
2018-10-16T11:24:27.112Z,19.40
2018-10-16T11:26:57.275Z,19.50
2018-10-16T11:29:27.376Z,19.40
2018-10-16T11:31:57.484Z,19.50
2018-10-16T11:34:27.556Z,19.50
2018-10-16T11:36:57.561Z,19.60
2018-10-16T11:39:27.607Z,19.80
2018-10-16T11:41:57.593Z,19.70
2018-10-16T11:44:27.600Z,19.80
2018-10-16T11:46:59.168Z,19.70
2018-10-16T11:49:29.166Z,19.70
2018-10-16T11:51:59.241Z,19.80
2018-10-16T11:54:29.199Z,19.70
2018-10-16T11:56:59.145Z,19.80
2018-10-16T11:59:29.467Z,19.80
2018-10-16T12:01:59.509Z,19.70
2018-10-16T12:04:29.608Z,19.90
2018-10-16T12:06:59.649Z,20.00
2018-10-16T12:09:29.620Z,20.00
2018-10-16T12:11:59.529Z,20.00
2018-10-16T12:14:29.515Z,20.20
2018-10-16T12:17:16.086Z,20.20
2018-10-16T12:20:19.925Z,20.20
2018-10-16T12:22:49.933Z,20.20
2018-10-16T12:25:19.976Z,20.20
2018-10-16T12:27:49.989Z,20.20
2018-10-16T12:30:19.951Z,20.30
2018-10-16T12:32:49.941Z,20.40
2018-10-16T12:35:19.947Z,20.40
2018-10-16T12:37:50.002Z,20.40
2018-10-16T12:40:20.161Z,20.60
2018-10-16T12:42:50.492Z,20.60
2018-10-16T12:45:20.329Z,20.80
2018-10-16T12:47:50.504Z,20.90
2018-10-16T12:50:20.635Z,20.90
2018-10-16T12:52:50.487Z,20.90
2018-10-16T12:55:22.840Z,20.70
2018-10-16T12:57:55.612Z,20.70
2018-10-16T13:00:25.797Z,20.80
2018-10-16T13:02:55.884Z,20.80
2018-10-16T13:05:25.848Z,20.90
2018-10-16T13:07:55.889Z,20.80
2018-10-16T13:10:26.205Z,20.70
2018-10-16T13:12:56.126Z,20.70
2018-10-16T13:15:26.100Z,20.70
2018-10-16T13:17:56.086Z,21.00
2018-10-16T13:20:26.097Z,21.00
2018-10-16T13:22:56.148Z,20.90
2018-10-16T13:25:26.100Z,20.80
2018-10-16T13:27:56.192Z,20.90
2018-10-16T13:30:26.198Z,20.90
2018-10-16T13:32:56.155Z,21.10
2018-10-16T13:35:26.211Z,21.10
2018-10-16T13:37:56.501Z,21.20
2018-10-16T13:40:26.447Z,21.40
2018-10-16T13:42:56.496Z,21.20
2018-10-16T13:45:26.518Z,21.10
2018-10-16T13:47:56.562Z,21.00
2018-10-16T13:50:26.561Z,21.20
2018-10-16T13:52:56.544Z,21.10
2018-10-16T13:55:26.533Z,21.10
2018-10-16T13:57:56.581Z,21.10
2018-10-16T14:00:26.595Z,21.10
2018-10-16T14:02:56.596Z,21.30
2018-10-16T14:05:26.758Z,21.30
2018-10-16T14:07:56.818Z,21.30
2018-10-16T14:10:26.930Z,21.10
2018-10-16T14:12:56.931Z,21.10
2018-10-16T14:15:26.983Z,21.10
2018-10-16T14:17:56.956Z,21.10
2018-10-16T14:20:26.961Z,21.20
2018-10-16T14:22:57.190Z,21.20
2018-10-16T14:25:27.163Z,21.10
2018-10-16T14:27:57.258Z,20.90
2018-10-16T14:30:27.262Z,21.10
2018-10-16T14:32:57.468Z,21.10
2018-10-16T14:35:27.563Z,21.10
2018-10-16T14:37:57.706Z,20.90
2018-10-16T14:40:27.728Z,21.00
2018-10-16T14:42:57.637Z,20.90
2018-10-16T14:45:27.644Z,20.80
2018-10-16T14:47:57.743Z,20.90
2018-10-16T14:50:27.677Z,21.00
2018-10-16T14:52:57.604Z,20.90
2018-10-16T14:55:27.818Z,20.70
2018-10-16T14:57:57.928Z,20.90
2018-10-16T15:00:27.995Z,20.80
2018-10-16T15:02:57.976Z,20.70
2018-10-16T15:05:28.020Z,20.50
2018-10-16T15:07:58.184Z,20.40
2018-10-16T15:10:28.345Z,20.40
2018-10-16T15:12:58.388Z,20.30
2018-10-16T15:15:28.371Z,20.20
2018-10-16T15:17:58.390Z,20.50
2018-10-16T15:20:28.363Z,20.40
2018-10-16T15:22:58.320Z,20.40
2018-10-16T15:25:28.451Z,20.50
2018-10-16T15:27:58.468Z,20.40
2018-10-16T15:30:28.377Z,20.10
2018-10-16T15:32:58.312Z,20.00
2018-10-16T15:35:28.406Z,20.00
2018-10-16T15:37:58.968Z,19.90
2018-10-16T15:40:28.982Z,19.60
2018-10-16T15:42:59.066Z,19.70
2018-10-16T15:45:29.093Z,19.70
2018-10-16T15:47:59.986Z,19.60
2018-10-16T15:50:31.055Z,19.50
2018-10-16T15:53:01.445Z,19.60
2018-10-16T15:55:31.397Z,19.50
2018-10-16T15:58:01.960Z,19.50
2018-10-16T16:00:31.890Z,19.40
2018-10-16T16:03:02.233Z,19.20
2018-10-16T16:05:32.501Z,18.80
2018-10-16T16:08:03.265Z,18.70
2018-10-16T16:10:33.294Z,18.80
2018-10-16T16:13:09.551Z,18.60
2018-10-16T16:15:39.744Z,18.70
2018-10-16T16:18:10.045Z,18.80
2018-10-16T16:20:39.896Z,18.40
2018-10-16T16:23:09.873Z,18.10
2018-10-16T16:28:20.459Z,17.70
2018-10-16T16:30:50.431Z,17.20
2018-10-16T16:33:21.020Z,17.10
2018-10-16T16:35:51.335Z,16.80
2018-10-16T16:38:21.620Z,16.70
2018-10-16T16:40:51.558Z,16.60
2018-10-16T16:43:21.620Z,16.50
2018-10-16T16:45:51.533Z,16.20
2018-10-16T16:48:21.536Z,16.20
2018-10-16T16:50:51.819Z,16.50
2018-10-16T16:53:21.779Z,17.30
2018-10-16T16:55:52.203Z,17.50
2018-10-16T16:58:22.315Z,17.50
2018-10-16T17:00:52.319Z,17.50
2018-10-16T17:03:22.341Z,17.20
2018-10-16T17:05:52.480Z,17.20
2018-10-16T17:08:23.038Z,17.00
2018-10-16T17:10:53.500Z,17.00
2018-10-16T17:13:24.231Z,16.90
2018-10-16T17:15:54.574Z,17.00
2018-10-16T17:18:27.759Z,16.90
2018-10-16T17:21:01.106Z,16.60
2018-10-16T17:23:31.734Z,16.40
2018-10-16T17:26:02.312Z,16.10
2018-10-16T17:28:32.448Z,16.00
2018-10-16T17:31:02.738Z,15.80
2018-10-16T17:33:32.859Z,15.60
2018-10-16T17:36:03.336Z,15.50
2018-10-16T17:38:33.632Z,15.40
2018-10-16T17:41:03.721Z,15.30
2018-10-16T17:43:33.699Z,15.20
2018-10-16T17:46:03.749Z,15.20
2018-10-16T17:48:33.792Z,15.10
2018-10-16T17:51:03.918Z,15.20
2018-10-16T17:53:33.874Z,15.30
2018-10-16T17:56:03.985Z,15.60
2018-10-16T17:58:34.045Z,15.50
2018-10-16T18:01:04.168Z,15.60
2018-10-16T18:03:34.271Z,15.80
2018-10-16T18:07:11.366Z,16.10
2018-10-16T18:09:41.422Z,16.40
2018-10-16T18:12:11.365Z,16.70
2018-10-16T18:14:41.410Z,16.60
2018-10-16T18:17:11.430Z,16.60
2018-10-16T18:19:41.946Z,16.80
2018-10-16T18:22:11.918Z,16.80
2018-10-16T18:24:41.938Z,16.80
2018-10-16T18:27:12.009Z,16.90
2018-10-16T18:29:42.083Z,17.20
2018-10-16T18:32:12.124Z,17.20
2018-10-16T18:34:42.338Z,17.20
2018-10-16T18:37:12.435Z,17.20
2018-10-16T18:39:42.726Z,17.10
2018-10-16T18:42:12.652Z,17.10
2018-10-16T18:44:42.807Z,17.00
2018-10-16T18:47:12.937Z,17.10
2018-10-16T18:49:42.942Z,17.00
2018-10-16T18:52:12.940Z,16.80
2018-10-16T18:54:43.025Z,16.80
2018-10-16T18:57:13.115Z,16.90
2018-10-16T18:59:43.194Z,16.80
2018-10-16T19:02:13.170Z,16.80
2018-10-16T19:04:43.274Z,16.70
2018-10-16T19:07:13.367Z,16.60
2018-10-16T19:09:43.426Z,16.50
2018-10-16T19:12:13.420Z,16.60
2018-10-16T19:14:43.404Z,16.50
2018-10-16T19:17:13.523Z,16.40
2018-10-16T19:19:43.570Z,16.40
2018-10-16T19:22:13.602Z,16.20
2018-10-16T19:24:43.704Z,16.20
2018-10-16T19:27:13.709Z,16.10
2018-10-16T19:29:43.685Z,16.20
2018-10-16T19:32:13.620Z,16.20
2018-10-16T19:34:43.686Z,16.00
2018-10-16T19:37:13.672Z,16.10
2018-10-16T19:39:43.684Z,16.00
2018-10-16T19:42:13.679Z,16.00
2018-10-16T19:44:43.688Z,15.80
2018-10-16T19:47:13.922Z,15.90
2018-10-16T19:49:43.835Z,15.90
2018-10-16T19:52:13.816Z,15.70
2018-10-16T19:54:43.762Z,16.00
2018-10-16T19:57:13.798Z,16.20
2018-10-16T19:59:43.696Z,16.20
2018-10-16T20:02:13.952Z,16.10
2018-10-16T20:04:44.203Z,16.00
2018-10-16T20:07:14.277Z,16.10
2018-10-16T20:09:44.157Z,16.00
2018-10-16T20:12:14.105Z,16.00
2018-10-16T20:14:44.142Z,15.90
2018-10-16T20:17:14.132Z,16.00
2018-10-16T20:19:44.231Z,16.10
2018-10-16T20:22:14.556Z,16.00
2018-10-16T20:24:44.600Z,16.10
2018-10-16T20:27:14.590Z,16.00
2018-10-16T20:29:45.307Z,16.00
2018-10-16T20:32:15.300Z,16.00
2018-10-16T20:34:45.350Z,16.00
2018-10-16T20:37:15.968Z,15.90
2018-10-16T20:39:46.258Z,15.90
2018-10-16T20:42:16.240Z,15.90
2018-10-16T20:44:46.192Z,15.80
2018-10-16T20:47:16.227Z,15.80
2018-10-16T20:49:46.164Z,15.60
2018-10-16T20:52:16.235Z,15.50
2018-10-16T20:54:46.179Z,15.40
2018-10-16T20:57:16.176Z,15.20
2018-10-16T20:59:46.827Z,15.00
2018-10-16T21:02:16.813Z,14.90
2018-10-16T21:04:46.920Z,14.60
2018-10-16T21:07:16.889Z,14.40
2018-10-16T21:09:46.880Z,14.20
2018-10-16T21:12:16.832Z,14.00
2018-10-16T21:14:46.877Z,13.80
2018-10-16T21:17:16.922Z,13.60
2018-10-16T21:19:46.880Z,13.50
2018-10-16T21:22:16.890Z,13.40
2018-10-16T21:24:46.872Z,13.30
2018-10-16T21:27:16.886Z,13.20
2018-10-16T21:29:46.809Z,13.10
2018-10-16T21:32:16.821Z,13.10
2018-10-16T21:34:46.803Z,13.00
2018-10-16T21:37:16.893Z,13.00
2018-10-16T21:39:46.883Z,12.90
2018-10-16T21:42:16.858Z,12.90
2018-10-16T21:44:46.873Z,12.90
2018-10-16T21:47:16.917Z,12.80
2018-10-16T21:49:46.691Z,12.70
2018-10-16T21:52:16.713Z,12.70
2018-10-16T21:54:46.759Z,12.70
2018-10-16T21:57:16.756Z,12.70
2018-10-16T21:59:46.863Z,12.70
2018-10-16T22:02:22.293Z,12.50
2018-10-16T22:04:52.219Z,12.50
2018-10-16T22:07:22.120Z,12.40
2018-10-16T22:09:52.071Z,12.30
2018-10-16T22:12:22.521Z,12.30
2018-10-16T22:14:52.408Z,12.30
2018-10-16T22:17:22.475Z,12.30
2018-10-16T22:19:52.376Z,12.20
2018-10-16T22:22:22.345Z,12.20
2018-10-16T22:24:52.331Z,12.20
2018-10-16T22:27:22.316Z,12.20
2018-10-16T22:29:52.278Z,12.20
2018-10-16T22:32:22.212Z,12.20
2018-10-16T22:34:52.128Z,12.20
2018-10-16T22:37:22.087Z,12.10
2018-10-16T22:39:52.030Z,12.10
2018-10-16T22:42:22.007Z,12.10
2018-10-16T22:44:51.865Z,12.10
2018-10-16T22:47:21.943Z,12.00
2018-10-16T22:49:51.850Z,12.00
2018-10-16T22:52:21.816Z,12.00
2018-10-16T22:54:51.747Z,11.90
2018-10-16T22:57:21.666Z,11.90
2018-10-16T22:59:51.531Z,11.90
2018-10-16T23:02:21.512Z,11.90
2018-10-16T23:04:51.678Z,12.00
2018-10-16T23:07:21.688Z,12.00
2018-10-16T23:09:51.892Z,11.90
2018-10-16T23:12:21.905Z,11.90
2018-10-16T23:14:51.820Z,11.80
2018-10-16T23:17:21.754Z,11.80
2018-10-16T23:19:51.717Z,11.70
2018-10-16T23:22:21.654Z,11.90
2018-10-16T23:24:51.961Z,12.10
2018-10-16T23:27:22.003Z,12.30
2018-10-16T23:29:52.090Z,12.30
2018-10-16T23:32:22.069Z,12.10
2018-10-16T23:34:51.960Z,11.90
2018-10-16T23:37:21.977Z,11.80
2018-10-16T23:39:51.951Z,11.70
2018-10-16T23:42:21.835Z,11.50
2018-10-16T23:44:51.922Z,11.50
2018-10-16T23:47:21.943Z,11.40
2018-10-16T23:49:51.942Z,11.40
2018-10-16T23:52:21.879Z,11.40
2018-10-16T23:54:51.805Z,11.30
2018-10-16T23:57:24.519Z,11.30
2018-10-16T23:59:54.523Z,11.20
